createdAt,value
2017-08-11T00:02:02.780Z,5.07
2017-08-11T00:04:30.523Z,5.83
2017-08-11T00:06:58.333Z,5.50
2017-08-11T00:09:26.049Z,5.00
2017-08-11T00:11:53.736Z,5.03
2017-08-11T00:14:21.500Z,5.60
2017-08-11T00:16:49.260Z,5.17
2017-08-11T00:19:17.017Z,5.23
2017-08-11T00:21:44.757Z,5.33
2017-08-11T00:24:12.568Z,6.53
2017-08-11T00:26:40.333Z,6.07
2017-08-11T00:29:08.116Z,6.80
2017-08-11T00:31:35.865Z,6.50
2017-08-11T00:34:03.620Z,7.43
2017-08-11T00:36:32.383Z,7.23
2017-08-11T00:39:00.138Z,6.33
2017-08-11T00:41:27.925Z,6.03
2017-08-11T00:43:55.619Z,6.00
2017-08-11T00:46:23.381Z,5.57
2017-08-11T00:48:51.091Z,5.20
2017-08-11T00:51:18.874Z,5.23
2017-08-11T00:53:46.611Z,6.10
2017-08-11T00:56:14.307Z,5.23
2017-08-11T00:58:42.028Z,5.63
2017-08-11T01:01:09.751Z,4.80
2017-08-11T01:03:37.426Z,4.40
2017-08-11T01:06:05.159Z,5.23
2017-08-11T01:08:32.999Z,6.33
2017-08-11T01:11:00.811Z,5.37
2017-08-11T01:13:28.509Z,4.40
2017-08-11T01:15:56.276Z,4.20
2017-08-11T01:18:24.000Z,4.00
2017-08-11T01:20:51.689Z,3.90
2017-08-11T01:23:19.442Z,3.73
2017-08-11T01:25:47.108Z,3.60
2017-08-11T01:28:14.830Z,4.00
2017-08-11T01:30:42.594Z,5.23
2017-08-11T01:33:10.320Z,5.60
2017-08-11T01:35:38.080Z,5.50
2017-08-11T01:38:05.872Z,6.27
2017-08-11T01:40:33.577Z,5.80
2017-08-11T01:43:01.357Z,4.90
2017-08-11T01:45:29.151Z,6.40
2017-08-11T01:47:56.841Z,6.17
2017-08-11T01:50:24.579Z,5.20
2017-08-11T01:52:52.336Z,5.93
2017-08-11T01:55:20.058Z,5.03
2017-08-11T01:57:47.759Z,6.00
2017-08-11T02:00:15.609Z,5.63
2017-08-11T02:02:43.495Z,5.80
2017-08-11T02:05:11.375Z,5.53
2017-08-11T02:07:39.180Z,6.10
2017-08-11T02:10:06.993Z,5.20
2017-08-11T02:12:34.810Z,4.80
2017-08-11T02:15:03.978Z,5.07
2017-08-11T02:17:31.753Z,4.80
2017-08-11T02:19:59.545Z,5.10
2017-08-11T02:22:27.316Z,3.90
2017-08-11T02:24:55.197Z,4.70
2017-08-11T02:27:22.990Z,4.80
2017-08-11T02:29:50.742Z,4.67
2017-08-11T02:32:18.464Z,4.60
2017-08-11T02:34:46.215Z,3.60
2017-08-11T02:37:13.925Z,4.70
2017-08-11T02:39:42.692Z,6.10
2017-08-11T02:42:10.449Z,6.43
2017-08-11T02:44:38.184Z,6.03
2017-08-11T02:47:05.943Z,5.53
2017-08-11T02:49:33.669Z,6.23
2017-08-11T02:52:01.405Z,6.50
2017-08-11T02:54:30.347Z,5.80
2017-08-11T02:56:58.049Z,5.93
2017-08-11T02:59:25.815Z,5.37
2017-08-11T03:01:53.525Z,4.93
2017-08-11T03:04:21.246Z,4.27
2017-08-11T03:06:49.542Z,4.63
2017-08-11T03:09:17.241Z,4.33
2017-08-11T03:11:45.000Z,5.37
2017-08-11T03:14:12.701Z,3.67
2017-08-11T03:16:40.470Z,4.07
2017-08-11T03:19:08.180Z,5.17
2017-08-11T03:21:35.977Z,4.97
2017-08-11T03:24:03.664Z,4.30
2017-08-11T03:26:31.447Z,4.60
2017-08-11T03:28:59.146Z,5.10
2017-08-11T03:31:26.856Z,4.83
2017-08-11T03:33:54.601Z,4.50
2017-08-11T03:36:22.281Z,4.00
2017-08-11T03:38:49.975Z,2.83
2017-08-11T03:41:17.713Z,2.80
2017-08-11T03:43:45.396Z,3.23
2017-08-11T03:46:13.180Z,3.87
2017-08-11T03:48:40.889Z,2.90
2017-08-11T03:51:08.646Z,2.70
2017-08-11T03:53:36.335Z,1.80
2017-08-11T03:56:04.123Z,2.30
2017-08-11T03:58:31.827Z,2.70
2017-08-11T04:00:59.521Z,3.40
2017-08-11T04:03:27.314Z,3.53
2017-08-11T04:05:55.069Z,2.97
2017-08-11T04:08:22.781Z,2.93
2017-08-11T04:10:50.555Z,4.20
2017-08-11T04:13:18.309Z,3.27
2017-08-11T04:15:46.142Z,3.97
2017-08-11T04:18:13.844Z,3.13
2017-08-11T04:20:41.557Z,2.50
2017-08-11T04:23:09.302Z,3.13
2017-08-11T04:25:37.037Z,3.43
2017-08-11T04:28:04.755Z,2.70
2017-08-11T04:30:32.513Z,2.97
2017-08-11T04:33:00.226Z,2.60
2017-08-11T04:35:27.960Z,2.60
2017-08-11T04:37:55.711Z,2.23
2017-08-11T04:40:23.477Z,4.10
2017-08-11T04:42:51.185Z,2.90
2017-08-11T04:45:18.935Z,2.90
2017-08-11T04:47:46.658Z,2.93
2017-08-11T04:50:14.456Z,3.13
2017-08-11T04:52:42.141Z,1.83
2017-08-11T04:55:09.920Z,2.63
2017-08-11T04:57:37.624Z,2.33
2017-08-11T05:00:05.373Z,2.93
2017-08-11T05:02:33.138Z,2.97
2017-08-11T05:05:00.906Z,2.87
2017-08-11T05:07:28.664Z,2.30
2017-08-11T05:09:56.363Z,2.50
2017-08-11T05:12:25.270Z,3.10
2017-08-11T05:14:53.023Z,3.30
2017-08-11T05:17:21.539Z,3.03
2017-08-11T05:19:49.357Z,1.97
2017-08-11T05:22:18.692Z,3.00
2017-08-11T05:24:47.006Z,3.37
2017-08-11T05:27:15.638Z,2.07
2017-08-11T05:29:43.438Z,1.63
2017-08-11T05:32:11.151Z,3.00
2017-08-11T05:34:38.884Z,2.87
2017-08-11T05:37:07.712Z,2.00
2017-08-11T05:39:35.552Z,2.40
2017-08-11T05:42:03.329Z,2.17
2017-08-11T05:44:31.288Z,2.23
2017-08-11T05:46:58.993Z,3.50
2017-08-11T05:49:26.766Z,1.73
2017-08-11T05:51:54.493Z,0.83
2017-08-11T05:54:22.279Z,0.77
2017-08-11T05:56:49.986Z,0.90
2017-08-11T05:59:17.783Z,0.97
2017-08-11T06:01:45.558Z,0.90
2017-08-11T06:04:13.303Z,1.30
2017-08-11T06:06:41.106Z,1.53
2017-08-11T06:09:08.894Z,1.60
2017-08-11T06:11:36.713Z,1.90
2017-08-11T06:14:04.482Z,0.70
2017-08-11T06:16:32.294Z,0.90
2017-08-11T06:19:00.126Z,0.97
2017-08-11T06:21:27.936Z,1.10
2017-08-11T06:23:55.769Z,1.60
2017-08-11T06:26:23.506Z,1.07
2017-08-11T06:28:51.368Z,1.40
2017-08-11T06:31:19.120Z,1.60
2017-08-11T06:33:47.060Z,1.77
2017-08-11T06:36:14.796Z,1.80
2017-08-11T06:38:42.504Z,1.20
2017-08-11T06:41:10.234Z,1.70
2017-08-11T06:43:37.996Z,1.63
2017-08-11T06:46:05.686Z,1.43
2017-08-11T06:48:33.491Z,1.93
2017-08-11T06:51:01.329Z,1.20
2017-08-11T06:53:29.061Z,1.20
2017-08-11T06:55:56.915Z,1.00
2017-08-11T06:58:24.675Z,1.33
2017-08-11T07:00:52.467Z,0.73
2017-08-11T07:03:20.233Z,0.60
2017-08-11T07:05:47.952Z,0.90
2017-08-11T07:08:15.694Z,0.87
2017-08-11T07:10:43.429Z,0.60
2017-08-11T07:13:11.178Z,0.93
2017-08-11T07:15:38.955Z,0.70
2017-08-11T07:18:06.675Z,0.80
2017-08-11T07:20:34.428Z,0.70
2017-08-11T07:23:02.144Z,0.70
2017-08-11T07:25:30.094Z,1.17
2017-08-11T07:27:57.951Z,1.13
2017-08-11T07:30:25.726Z,0.80
2017-08-11T07:32:53.537Z,0.93
2017-08-11T07:35:21.345Z,1.30
2017-08-11T07:37:49.216Z,1.00
2017-08-11T07:40:17.023Z,0.83
2017-08-11T07:42:44.886Z,0.67
2017-08-11T07:45:12.671Z,0.60
2017-08-11T07:47:41.203Z,0.93
2017-08-11T07:50:08.884Z,1.43
2017-08-11T07:52:37.559Z,0.60
2017-08-11T07:55:05.360Z,0.80
2017-08-11T07:57:33.075Z,0.80
2017-08-11T08:00:00.912Z,0.63
2017-08-11T08:02:28.716Z,3.50
2017-08-11T08:04:56.418Z,0.80
2017-08-11T08:07:24.122Z,0.90
2017-08-11T08:09:51.881Z,0.80
2017-08-11T08:12:20.459Z,0.80
2017-08-11T08:14:48.165Z,1.17
2017-08-11T08:17:15.974Z,0.70
2017-08-11T08:19:43.779Z,1.20
2017-08-11T08:22:11.461Z,0.90
2017-08-11T08:24:39.195Z,0.57
2017-08-11T08:27:07.026Z,6.00
2017-08-11T08:29:34.715Z,5.60
2017-08-11T08:32:02.419Z,1.00
2017-08-11T08:34:30.203Z,0.87
2017-08-11T08:36:57.939Z,0.90
2017-08-11T08:39:25.653Z,1.20
2017-08-11T08:41:54.501Z,1.07
2017-08-11T08:44:22.305Z,1.57
2017-08-11T08:46:50.150Z,1.33
2017-08-11T08:49:17.861Z,1.50
2017-08-11T08:51:45.609Z,2.17
2017-08-11T08:54:13.409Z,1.00
2017-08-11T08:56:41.148Z,1.57
2017-08-11T08:59:08.916Z,1.80
2017-08-11T09:01:36.836Z,0.90
2017-08-11T09:04:04.627Z,0.43
2017-08-11T09:06:32.375Z,0.63
2017-08-11T09:09:00.206Z,0.50
2017-08-11T09:11:27.927Z,0.50
2017-08-11T09:13:55.714Z,0.80
2017-08-11T09:16:23.418Z,0.97
2017-08-11T09:18:51.204Z,0.60
2017-08-11T09:21:18.982Z,0.80
2017-08-11T09:23:46.735Z,0.60
2017-08-11T09:26:26.373Z,0.70
2017-08-11T09:29:05.846Z,0.80
2017-08-11T09:34:55.197Z,0.53
2017-08-11T09:37:22.988Z,0.70
2017-08-11T09:39:50.799Z,0.67
2017-08-11T09:42:18.560Z,0.60
2017-08-11T09:44:46.392Z,0.87
2017-08-11T09:47:14.108Z,0.60
2017-08-11T09:49:41.867Z,0.70
2017-08-11T09:52:09.659Z,0.80
2017-08-11T09:54:37.444Z,0.67
2017-08-11T09:57:05.233Z,0.70
2017-08-11T09:59:33.021Z,0.90
2017-08-11T10:02:00.841Z,0.53
2017-08-11T10:04:28.640Z,0.63
2017-08-11T10:06:56.505Z,0.70
2017-08-11T10:09:24.218Z,1.20
2017-08-11T10:11:51.934Z,0.87
2017-08-11T10:14:19.725Z,1.07
2017-08-11T10:16:47.418Z,0.90
2017-08-11T10:19:15.994Z,0.80
2017-08-11T10:21:43.802Z,0.83
2017-08-11T10:24:11.574Z,0.97
2017-08-11T10:26:39.339Z,0.83
2017-08-11T10:29:07.062Z,1.40
2017-08-11T10:31:34.852Z,0.80
2017-08-11T10:34:02.616Z,0.93
2017-08-11T10:36:30.404Z,0.87
2017-08-11T10:38:58.173Z,0.80
2017-08-11T10:41:25.999Z,1.40
2017-08-11T10:43:53.701Z,1.27
2017-08-11T10:46:21.504Z,0.90
2017-08-11T10:48:49.308Z,0.80
2017-08-11T10:51:17.013Z,0.40
2017-08-11T10:53:44.774Z,0.90
2017-08-11T10:56:12.531Z,1.10
2017-08-11T10:58:41.109Z,0.80
2017-08-11T11:01:08.885Z,1.00
2017-08-11T11:03:36.622Z,0.90
2017-08-11T11:06:04.373Z,0.60
2017-08-11T11:08:32.096Z,1.27
2017-08-11T11:10:59.863Z,1.70
2017-08-11T11:13:27.570Z,1.43
2017-08-11T11:15:55.303Z,1.30
2017-08-11T11:18:23.061Z,0.70
2017-08-11T11:20:51.587Z,1.60
2017-08-11T11:23:19.575Z,4.40
2017-08-11T11:25:47.307Z,1.97
2017-08-11T11:28:15.037Z,0.70
2017-08-11T11:30:42.830Z,0.87
2017-08-11T11:33:10.579Z,0.70
2017-08-11T11:35:38.357Z,1.17
2017-08-11T11:38:06.106Z,0.93
2017-08-11T11:40:33.831Z,0.70
2017-08-11T11:43:01.671Z,0.70
2017-08-11T11:45:29.357Z,0.87
2017-08-11T11:47:57.116Z,1.30
2017-08-11T11:50:24.835Z,1.30
2017-08-11T11:52:52.585Z,0.80
2017-08-11T11:55:20.273Z,0.70
2017-08-11T11:57:48.062Z,0.33
2017-08-11T12:00:15.830Z,0.40
2017-08-11T12:02:43.518Z,0.50
2017-08-11T12:05:11.305Z,0.30
2017-08-11T12:07:38.998Z,0.30
2017-08-11T12:10:06.764Z,0.40
2017-08-11T12:12:34.571Z,0.40
2017-08-11T12:15:02.266Z,0.40
2017-08-11T12:17:30.012Z,0.40
2017-08-11T12:19:57.852Z,0.40
2017-08-11T12:22:25.668Z,0.60
2017-08-11T12:24:53.381Z,0.40
2017-08-11T12:27:21.110Z,0.50
2017-08-11T12:29:49.579Z,0.57
2017-08-11T12:32:17.263Z,0.63
2017-08-11T12:34:44.983Z,0.53
2017-08-11T12:37:12.657Z,0.80
2017-08-11T12:39:40.423Z,0.60
2017-08-11T12:42:08.154Z,0.50
2017-08-11T12:44:35.898Z,1.53
2017-08-11T12:47:03.643Z,1.27
2017-08-11T12:49:31.365Z,0.80
2017-08-11T12:51:59.120Z,0.70
2017-08-11T12:54:26.840Z,3.37
2017-08-11T12:56:54.619Z,1.60
2017-08-11T12:59:22.401Z,0.60
2017-08-11T13:01:50.887Z,0.60
2017-08-11T13:04:18.640Z,0.53
2017-08-11T13:06:46.379Z,0.70
2017-08-11T13:09:14.199Z,0.57
2017-08-11T13:11:41.913Z,0.77
2017-08-11T13:14:10.520Z,1.07
2017-08-11T13:16:38.251Z,0.40
2017-08-11T13:19:05.969Z,0.40
2017-08-11T13:21:33.718Z,0.50
2017-08-11T13:24:01.434Z,1.20
2017-08-11T13:26:29.267Z,0.40
2017-08-11T13:28:57.960Z,1.30
2017-08-11T13:31:25.710Z,0.90
2017-08-11T13:33:53.535Z,0.83
2017-08-11T13:36:21.357Z,0.53
2017-08-11T13:38:49.072Z,0.40
2017-08-11T13:41:16.838Z,0.80
2017-08-11T13:43:44.591Z,0.33
2017-08-11T13:46:12.378Z,0.40
2017-08-11T13:48:40.083Z,0.50
2017-08-11T13:51:07.843Z,0.40
2017-08-11T13:53:35.659Z,0.30
2017-08-11T13:56:03.420Z,0.50
2017-08-11T13:58:31.164Z,1.50
2017-08-11T14:00:58.918Z,0.60
2017-08-11T14:03:26.729Z,0.80
2017-08-11T14:05:54.448Z,0.50
2017-08-11T14:08:22.284Z,0.90
2017-08-11T14:10:49.990Z,0.67
2017-08-11T14:13:17.756Z,0.50
2017-08-11T14:15:45.519Z,0.50
2017-08-11T14:18:13.843Z,0.50
2017-08-11T14:20:41.668Z,0.43
2017-08-11T14:23:09.435Z,0.50
2017-08-11T14:25:37.129Z,0.50
2017-08-11T14:28:05.865Z,0.40
2017-08-11T14:30:33.777Z,0.40
2017-08-11T14:33:01.596Z,0.30
2017-08-11T14:35:29.364Z,0.40
2017-08-11T14:37:57.192Z,0.67
2017-08-11T14:40:26.131Z,0.60
2017-08-11T14:42:53.837Z,0.40
2017-08-11T14:45:21.593Z,0.70
2017-08-11T14:47:49.300Z,0.43
2017-08-11T14:50:17.092Z,0.47
2017-08-11T14:52:44.802Z,0.40
2017-08-11T14:55:12.554Z,0.73
2017-08-11T14:57:41.186Z,0.70
2017-08-11T15:00:08.927Z,0.40
2017-08-11T15:02:36.677Z,0.43
2017-08-11T15:05:04.364Z,0.70
2017-08-11T15:07:32.143Z,0.67
2017-08-11T15:09:59.883Z,0.80
2017-08-11T15:12:27.588Z,0.50
2017-08-11T15:14:55.430Z,0.60
2017-08-11T15:17:23.136Z,0.80
2017-08-11T15:19:50.904Z,0.73
2017-08-11T15:22:18.722Z,0.63
2017-08-11T15:24:46.503Z,1.17
2017-08-11T15:27:14.238Z,1.20
2017-08-11T15:29:41.986Z,0.60
2017-08-11T15:32:10.087Z,0.70
2017-08-11T15:34:37.845Z,0.60
2017-08-11T15:37:05.650Z,0.43
2017-08-11T15:39:33.381Z,0.80
2017-08-11T15:42:01.136Z,0.30
2017-08-11T15:44:28.878Z,0.60
2017-08-11T15:46:56.599Z,0.80
2017-08-11T15:49:24.438Z,0.80
2017-08-11T15:51:52.146Z,1.03
2017-08-11T15:54:19.913Z,0.70
2017-08-11T15:56:47.617Z,0.97
2017-08-11T15:59:15.337Z,1.60
2017-08-11T16:01:43.109Z,0.93
2017-08-11T16:04:10.873Z,1.17
2017-08-11T16:06:38.742Z,0.70
2017-08-11T16:09:06.615Z,1.10
2017-08-11T16:11:34.349Z,0.47
2017-08-11T16:14:02.174Z,0.80
2017-08-11T16:16:29.941Z,0.73
2017-08-11T16:18:57.690Z,0.63
2017-08-11T16:21:25.460Z,0.60
2017-08-11T16:23:53.216Z,0.90
2017-08-11T16:26:20.963Z,0.70
2017-08-11T16:28:48.751Z,0.50
2017-08-11T16:31:16.536Z,0.57
2017-08-11T16:33:44.244Z,0.47
2017-08-11T16:36:11.999Z,0.47
2017-08-11T16:38:39.812Z,0.50
2017-08-11T16:41:07.565Z,0.50
2017-08-11T16:43:35.361Z,1.00
2017-08-11T16:46:03.058Z,0.53
2017-08-11T16:48:30.863Z,0.97
2017-08-11T16:50:58.653Z,1.40
2017-08-11T16:53:26.472Z,0.60
2017-08-11T16:55:54.271Z,0.70
2017-08-11T16:58:21.983Z,0.80
2017-08-11T17:00:49.802Z,0.90
2017-08-11T17:03:17.642Z,0.50
2017-08-11T17:05:45.483Z,0.60
2017-08-11T17:08:13.338Z,0.40
2017-08-11T17:10:41.198Z,0.50
2017-08-11T17:13:09.036Z,0.53
2017-08-11T17:15:36.991Z,0.60
2017-08-11T17:18:04.923Z,1.67
2017-08-11T17:20:32.780Z,0.57
2017-08-11T17:23:00.569Z,0.60
2017-08-11T17:25:28.286Z,0.60
2017-08-11T17:27:56.687Z,0.80
2017-08-11T17:30:24.467Z,0.60
2017-08-11T17:32:52.492Z,0.40
2017-08-11T17:35:20.279Z,0.40
2017-08-11T17:37:48.074Z,0.60
2017-08-11T17:40:15.846Z,0.70
2017-08-11T17:42:43.536Z,0.70
2017-08-11T17:45:11.327Z,0.77
2017-08-11T17:47:39.063Z,0.73
2017-08-11T17:50:06.861Z,0.60
2017-08-11T17:52:34.618Z,0.60
2017-08-11T17:55:02.412Z,0.60
2017-08-11T17:57:30.490Z,0.50
2017-08-11T17:59:58.582Z,0.70
2017-08-11T18:02:26.330Z,0.80
2017-08-11T18:04:54.182Z,0.67
2017-08-11T18:07:21.906Z,0.70
2017-08-11T18:09:49.714Z,0.43
2017-08-11T18:12:17.447Z,0.63
2017-08-11T18:14:45.285Z,0.97
2017-08-11T18:17:13.073Z,0.47
2017-08-11T18:19:40.925Z,0.60
2017-08-11T18:22:08.686Z,0.50
2017-08-11T18:24:36.531Z,1.03
2017-08-11T18:27:04.227Z,0.50
2017-08-11T18:29:35.181Z,0.43
2017-08-11T18:32:02.907Z,0.90
2017-08-11T18:34:34.711Z,0.80
2017-08-11T18:37:03.674Z,0.50
2017-08-11T18:39:31.675Z,0.40
2017-08-11T18:41:59.443Z,0.90
2017-08-11T18:44:27.265Z,0.87
2017-08-11T18:46:55.071Z,0.80
2017-08-11T18:49:22.829Z,0.50
2017-08-11T18:51:50.636Z,0.60
2017-08-11T18:54:18.462Z,0.50
2017-08-11T18:56:47.109Z,0.53
2017-08-11T18:59:15.428Z,0.73
2017-08-11T19:01:43.177Z,0.63
2017-08-11T19:04:10.991Z,0.50
2017-08-11T19:06:38.868Z,0.53
2017-08-11T19:09:06.762Z,0.57
2017-08-11T19:11:34.512Z,0.47
2017-08-11T19:14:03.164Z,0.63
2017-08-11T19:16:32.125Z,0.70
2017-08-11T19:18:59.891Z,0.60
2017-08-11T19:21:27.719Z,0.43
2017-08-11T19:23:55.536Z,0.40
2017-08-11T19:26:23.515Z,0.40
2017-08-11T19:28:52.182Z,0.60
2017-08-11T19:31:20.012Z,0.90
2017-08-11T19:33:47.840Z,0.40
2017-08-11T19:36:15.632Z,0.40
2017-08-11T19:38:43.395Z,0.40
2017-08-11T19:41:11.129Z,0.60
2017-08-11T19:43:40.142Z,0.63
2017-08-11T20:29:47.630Z,0.40
2017-08-11T20:32:15.384Z,0.67
2017-08-11T20:34:43.141Z,0.40
2017-08-11T20:37:12.339Z,0.47
2017-08-11T20:39:40.057Z,0.40
2017-08-11T20:42:07.896Z,0.60
2017-08-11T20:44:35.608Z,1.17
2017-08-11T20:47:03.381Z,0.50
2017-08-11T20:49:31.178Z,0.47
2017-08-11T20:51:58.928Z,0.40
2017-08-11T20:54:26.878Z,0.30
2017-08-11T20:56:54.644Z,0.60
2017-08-11T20:59:22.531Z,0.40
2017-08-11T21:01:50.277Z,0.43
2017-08-11T21:04:18.025Z,0.60
2017-08-11T21:06:45.836Z,0.67
2017-08-11T21:09:13.622Z,0.50
2017-08-11T21:11:41.452Z,0.40
2017-08-11T21:14:09.290Z,0.40
2017-08-11T21:16:37.209Z,0.53
2017-08-11T21:19:05.040Z,0.57
2017-08-11T21:21:32.763Z,0.50
2017-08-11T21:24:00.551Z,0.50
2017-08-11T21:26:28.276Z,0.50
2017-08-11T21:28:56.051Z,0.60
2017-08-11T21:31:23.896Z,0.43
2017-08-11T21:33:51.623Z,0.53
2017-08-11T21:36:19.415Z,0.80
2017-08-11T21:38:47.275Z,0.40
2017-08-11T21:41:15.107Z,0.60
2017-08-11T21:43:42.838Z,0.43
2017-08-11T21:46:10.610Z,0.53
2017-08-11T21:48:38.366Z,0.47
2017-08-11T21:51:06.092Z,1.00
2017-08-11T21:53:33.831Z,1.00
2017-08-11T21:56:01.705Z,0.60
2017-08-11T21:58:29.462Z,0.37
2017-08-11T22:00:57.245Z,0.33
2017-08-11T22:03:24.987Z,0.70
2017-08-11T22:05:52.747Z,0.83
2017-08-11T22:08:20.520Z,0.30
2017-08-11T22:10:48.290Z,0.30
2017-08-11T22:13:16.886Z,0.50
2017-08-11T22:15:44.855Z,0.60
2017-08-11T22:18:12.690Z,0.43
2017-08-11T22:20:40.576Z,0.60
2017-08-11T22:23:08.527Z,0.50
2017-08-11T22:25:36.284Z,0.60
2017-08-11T22:28:04.057Z,0.70
2017-08-11T22:30:31.918Z,0.60
2017-08-11T22:32:59.647Z,0.50
2017-08-11T22:35:27.387Z,0.80
2017-08-11T22:37:55.121Z,0.67
2017-08-11T22:40:22.879Z,0.80
2017-08-11T22:42:50.668Z,0.83
2017-08-11T22:45:18.483Z,0.67
2017-08-11T22:47:46.281Z,0.50
2017-08-11T22:50:14.162Z,0.53
2017-08-11T22:52:41.885Z,0.53
2017-08-11T22:55:09.752Z,0.60
2017-08-11T22:57:37.532Z,0.50
2017-08-11T23:00:05.335Z,0.57
2017-08-11T23:02:33.036Z,0.60
2017-08-11T23:05:00.837Z,1.23
2017-08-11T23:07:28.592Z,0.47
2017-08-11T23:09:56.340Z,0.40
2017-08-11T23:12:24.059Z,0.80
2017-08-11T23:14:51.807Z,0.40
2017-08-11T23:17:19.529Z,0.60
2017-08-11T23:19:47.240Z,0.63
2017-08-11T23:22:14.990Z,0.50
2017-08-11T23:24:42.741Z,0.90
2017-08-11T23:27:10.451Z,0.50
2017-08-11T23:29:38.198Z,0.57
2017-08-11T23:32:05.907Z,0.70
2017-08-11T23:34:33.656Z,0.53
2017-08-11T23:37:01.420Z,2.57
2017-08-11T23:39:29.173Z,0.40
2017-08-11T23:41:56.971Z,0.60
2017-08-11T23:44:24.784Z,0.70
2017-08-11T23:46:52.449Z,0.40
2017-08-11T23:49:20.170Z,0.50
2017-08-11T23:51:47.899Z,0.83
2017-08-11T23:54:15.583Z,1.07
2017-08-11T23:56:43.325Z,0.67
2017-08-11T23:59:11.021Z,0.70
